createdAt,value
2022-09-29T00:00:54.165Z,6.05
2022-09-29T00:03:22.470Z,4.93
2022-09-29T00:05:55.602Z,6.80
2022-09-29T00:08:26.104Z,6.10
2022-09-29T00:10:53.419Z,5.53
2022-09-29T00:13:21.199Z,4.57
2022-09-29T00:16:02.574Z,4.47
2022-09-29T00:18:31.414Z,4.72
2022-09-29T00:21:11.121Z,5.57
2022-09-29T00:23:39.006Z,5.80
2022-09-29T00:26:07.874Z,4.72
2022-09-29T00:28:37.815Z,5.78
2022-09-29T00:31:06.944Z,6.95
2022-09-29T00:33:37.018Z,6.10
2022-09-29T00:36:06.923Z,7.15
2022-09-29T00:38:34.894Z,6.32
2022-09-29T00:41:02.634Z,7.97
2022-09-29T00:44:08.938Z,8.57
2022-09-29T00:46:38.758Z,8.05
2022-09-29T00:49:41.448Z,7.88
2022-09-29T00:52:23.305Z,7.13
2022-09-29T00:55:04.750Z,6.57
2022-09-29T00:57:54.924Z,7.03
2022-09-29T01:00:22.446Z,8.50
2022-09-29T01:02:57.030Z,6.13
2022-09-29T01:05:34.784Z,5.80
2022-09-29T01:08:11.724Z,6.75
2022-09-29T01:10:41.567Z,6.85
2022-09-29T01:13:09.224Z,7.65
2022-09-29T01:15:36.949Z,6.40
2022-09-29T01:18:05.849Z,7.43
2022-09-29T01:20:41.409Z,8.25
2022-09-29T01:23:42.013Z,6.60
2022-09-29T01:26:38.439Z,8.40
2022-09-29T01:29:24.436Z,5.38
2022-09-29T01:32:07.625Z,6.93
2022-09-29T01:34:45.099Z,6.13
2022-09-29T01:37:15.643Z,6.93
2022-09-29T01:39:55.059Z,6.68
2022-09-29T01:42:34.719Z,9.43
2022-09-29T01:45:27.328Z,6.60
2022-09-29T01:47:59.338Z,6.75
2022-09-29T01:50:32.775Z,9.05
2022-09-29T01:53:07.495Z,7.45
2022-09-29T01:55:38.529Z,7.63
2022-09-29T01:58:09.523Z,6.63
2022-09-29T02:00:44.059Z,9.80
2022-09-29T02:03:26.669Z,7.13
2022-09-29T02:05:58.837Z,7.80
2022-09-29T02:08:43.155Z,7.35
2022-09-29T02:14:04.831Z,8.55
2022-09-29T02:16:39.380Z,7.00
2022-09-29T02:19:21.249Z,9.23
2022-09-29T02:21:48.636Z,7.30
2022-09-29T02:24:16.024Z,9.70
2022-09-29T02:26:45.559Z,8.43
2022-09-29T02:29:13.959Z,7.97
2022-09-29T02:31:42.043Z,8.05
2022-09-29T02:34:12.529Z,8.73
2022-09-29T02:36:58.027Z,11.15
2022-09-29T02:39:31.282Z,8.95
2022-09-29T02:42:04.222Z,10.00
2022-09-29T02:44:52.916Z,8.43
2022-09-29T02:47:38.365Z,8.32
2022-09-29T02:50:36.645Z,8.75
2022-09-29T02:53:20.143Z,11.00
2022-09-29T02:55:57.504Z,8.95
2022-09-29T02:58:34.360Z,12.20
2022-09-29T03:01:02.429Z,10.32
2022-09-29T03:03:29.836Z,9.75
2022-09-29T03:05:57.446Z,9.30
2022-09-29T03:08:24.767Z,10.35
2022-09-29T03:10:52.122Z,14.98
2022-09-29T03:13:19.448Z,13.65
2022-09-29T03:15:46.687Z,12.60
2022-09-29T03:18:14.780Z,14.95
2022-09-29T03:20:42.245Z,10.75
2022-09-29T03:23:09.554Z,10.48
2022-09-29T03:25:37.083Z,10.88
2022-09-29T03:28:04.483Z,11.85
2022-09-29T03:30:32.080Z,11.35
2022-09-29T03:32:59.468Z,10.20
2022-09-29T03:35:26.918Z,8.45
2022-09-29T03:37:59.556Z,9.95
2022-09-29T03:40:28.168Z,10.85
2022-09-29T03:42:55.677Z,10.43
2022-09-29T03:45:23.000Z,9.63
2022-09-29T03:47:50.499Z,9.70
2022-09-29T03:50:18.027Z,8.52
2022-09-29T03:52:45.343Z,9.68
2022-09-29T03:55:12.771Z,8.25
2022-09-29T03:57:40.063Z,9.38
2022-09-29T04:00:08.240Z,8.93
2022-09-29T04:02:36.196Z,9.07
2022-09-29T04:05:03.656Z,8.60
2022-09-29T04:07:32.493Z,10.13
2022-09-29T04:09:59.813Z,10.40
2022-09-29T04:12:27.057Z,10.23
2022-09-29T04:14:54.421Z,8.60
2022-09-29T04:17:22.853Z,7.85
2022-09-29T04:19:50.076Z,11.35
2022-09-29T04:22:18.951Z,10.15
2022-09-29T04:24:48.484Z,9.13
2022-09-29T04:27:16.459Z,8.85
2022-09-29T04:29:43.816Z,11.60
2022-09-29T04:32:11.659Z,7.63
2022-09-29T04:34:39.336Z,9.10
2022-09-29T04:37:11.717Z,9.02
2022-09-29T04:39:39.177Z,10.73
2022-09-29T04:42:06.513Z,13.32
2022-09-29T04:44:33.913Z,12.70
2022-09-29T04:47:01.198Z,12.38
2022-09-29T04:49:28.574Z,14.73
2022-09-29T04:51:55.867Z,12.68
2022-09-29T04:54:23.070Z,11.95
2022-09-29T04:56:52.233Z,12.73
2022-09-29T04:59:19.581Z,8.95
2022-09-29T05:01:46.913Z,11.27
2022-09-29T05:04:14.394Z,8.73
2022-09-29T05:06:42.133Z,9.73
2022-09-29T05:09:10.073Z,11.52
2022-09-29T05:11:37.461Z,13.48
2022-09-29T05:14:04.938Z,15.52
2022-09-29T05:16:32.679Z,15.68
2022-09-29T05:19:00.393Z,11.10
2022-09-29T05:21:29.168Z,10.93
2022-09-29T05:23:57.193Z,11.90
2022-09-29T05:26:24.960Z,9.75
2022-09-29T05:28:52.377Z,10.00
2022-09-29T05:31:19.976Z,13.25
2022-09-29T05:33:47.460Z,11.20
2022-09-29T05:36:14.941Z,15.45
2022-09-29T05:38:42.354Z,10.45
2022-09-29T05:41:12.523Z,10.27
2022-09-29T05:43:40.903Z,16.08
2022-09-29T05:46:11.074Z,12.82
2022-09-29T05:48:38.860Z,11.52
2022-09-29T05:51:11.979Z,12.00
2022-09-29T05:53:40.025Z,11.07
2022-09-29T05:56:09.538Z,14.23
2022-09-29T05:58:37.814Z,13.93
2022-09-29T06:01:09.854Z,10.48
2022-09-29T06:03:38.082Z,12.35
2022-09-29T06:06:11.440Z,10.68
2022-09-29T06:08:39.760Z,9.50
2022-09-29T06:11:16.501Z,10.50
2022-09-29T06:13:46.135Z,11.65
2022-09-29T06:16:14.699Z,10.75
2022-09-29T06:18:42.380Z,12.43
2022-09-29T06:21:12.199Z,12.05
2022-09-29T06:23:39.920Z,10.13
2022-09-29T06:26:10.785Z,8.25
2022-09-29T06:28:38.838Z,9.90
2022-09-29T06:31:09.738Z,10.52
2022-09-29T06:33:37.188Z,9.10
2022-09-29T06:36:32.275Z,8.55
2022-09-29T06:38:59.979Z,8.85
2022-09-29T06:41:28.815Z,8.82
2022-09-29T06:43:56.636Z,9.07
2022-09-29T06:46:24.507Z,10.48
2022-09-29T06:48:51.839Z,9.25
2022-09-29T06:51:23.159Z,11.25
2022-09-29T06:53:53.875Z,11.50
2022-09-29T06:56:22.739Z,8.93
2022-09-29T06:58:50.121Z,9.00
2022-09-29T07:01:17.862Z,8.55
2022-09-29T07:03:45.319Z,8.63
2022-09-29T07:06:19.684Z,8.38
2022-09-29T07:08:47.524Z,10.10
2022-09-29T07:11:16.805Z,10.65
2022-09-29T07:13:44.428Z,13.40
2022-09-29T07:16:14.318Z,11.32
2022-09-29T07:18:43.145Z,11.43
2022-09-29T07:21:13.157Z,13.00
2022-09-29T07:23:41.496Z,11.70
2022-09-29T07:26:09.695Z,9.15
2022-09-29T07:28:37.641Z,8.88
2022-09-29T07:31:15.234Z,7.95
2022-09-29T07:33:44.507Z,12.32
2022-09-29T07:36:13.034Z,7.95
2022-09-29T07:38:40.972Z,9.55
2022-09-29T07:41:13.448Z,9.10
2022-09-29T07:43:41.235Z,8.52
2022-09-29T07:46:09.642Z,35.35
2022-09-29T07:48:38.468Z,11.15
2022-09-29T07:51:08.570Z,7.07
2022-09-29T07:53:37.382Z,12.05
2022-09-29T07:56:16.214Z,7.22
2022-09-29T07:58:43.697Z,7.45
2022-09-29T08:01:13.699Z,6.95
2022-09-29T08:03:42.492Z,7.53
2022-09-29T08:06:11.290Z,7.65
2022-09-29T08:08:40.484Z,7.07
2022-09-29T08:11:21.065Z,6.93
2022-09-29T08:13:53.674Z,8.93
2022-09-29T08:16:21.811Z,22.52
2022-09-29T08:18:50.640Z,8.82
2022-09-29T08:21:18.260Z,6.90
2022-09-29T08:23:45.754Z,7.30
2022-09-29T08:26:19.988Z,8.18
2022-09-29T08:29:01.815Z,9.90
2022-09-29T08:31:31.702Z,7.85
2022-09-29T08:33:59.433Z,8.65
2022-09-29T08:36:27.068Z,6.72
2022-09-29T08:38:56.978Z,9.63
2022-09-29T08:41:52.431Z,7.70
2022-09-29T08:44:36.799Z,7.13
2022-09-29T08:47:29.801Z,7.85
2022-09-29T08:50:16.955Z,8.55
2022-09-29T08:52:53.825Z,7.72
2022-09-29T08:55:50.775Z,15.75
2022-09-29T08:58:18.110Z,7.82
2022-09-29T09:00:50.892Z,6.57
2022-09-29T09:03:33.483Z,6.07
2022-09-29T09:06:35.513Z,5.57
2022-09-29T09:09:24.565Z,5.68
2022-09-29T09:12:20.650Z,6.80
2022-09-29T09:14:55.677Z,6.40
2022-09-29T09:17:57.079Z,7.28
2022-09-29T09:20:52.777Z,7.88
2022-09-29T09:23:34.854Z,5.35
2022-09-29T09:26:04.430Z,5.50
2022-09-29T09:28:35.255Z,10.13
2022-09-29T09:31:11.107Z,7.70
2022-09-29T09:33:42.658Z,5.57
2022-09-29T09:36:27.906Z,6.68
2022-09-29T09:39:11.694Z,21.10
2022-09-29T09:41:41.469Z,7.95
2022-09-29T09:44:16.481Z,9.73
2022-09-29T09:46:51.255Z,8.80
2022-09-29T09:49:30.490Z,4.78
2022-09-29T09:52:07.442Z,25.45
2022-09-29T09:54:38.792Z,16.05
2022-09-29T09:57:22.302Z,19.92
2022-09-29T10:00:03.855Z,22.00
2022-09-29T10:02:32.422Z,12.98
2022-09-29T10:04:59.774Z,14.00
2022-09-29T10:07:32.474Z,14.90
2022-09-29T10:10:05.350Z,6.55
2022-09-29T10:12:32.663Z,16.05
2022-09-29T10:15:13.109Z,16.75
2022-09-29T10:17:45.131Z,6.05
2022-09-29T10:20:12.486Z,14.57
2022-09-29T10:22:40.011Z,20.48
2022-09-29T10:25:18.930Z,23.38
2022-09-29T10:27:54.554Z,5.50
2022-09-29T10:30:32.788Z,29.25
2022-09-29T10:33:02.747Z,24.15
2022-09-29T10:35:52.631Z,20.58
2022-09-29T10:38:26.136Z,7.07
2022-09-29T10:41:01.234Z,9.30
2022-09-29T10:43:42.938Z,15.57
2022-09-29T10:46:53.534Z,17.92
2022-09-29T10:49:23.361Z,37.45
2022-09-29T10:52:04.754Z,14.00
2022-09-29T10:54:35.682Z,12.65
2022-09-29T10:57:16.471Z,9.43
2022-09-29T10:59:53.358Z,12.60
2022-09-29T11:02:40.600Z,16.33
2022-09-29T11:05:20.608Z,10.57
2022-09-29T11:07:50.177Z,7.32
2022-09-29T11:10:39.090Z,8.20
2022-09-29T11:13:24.994Z,10.50
2022-09-29T11:15:52.673Z,8.88
2022-09-29T11:18:24.774Z,15.95
2022-09-29T11:21:06.935Z,14.38
2022-09-29T11:23:51.030Z,19.67
2022-09-29T11:26:47.510Z,29.58
2022-09-29T11:29:26.621Z,12.45
2022-09-29T11:32:41.931Z,21.33
2022-09-29T11:35:30.591Z,17.85
2022-09-29T11:37:58.269Z,21.35
2022-09-29T11:40:30.331Z,20.38
2022-09-29T11:43:20.998Z,30.98
2022-09-29T11:46:04.065Z,20.45
2022-09-29T11:48:50.310Z,38.15
2022-09-29T11:51:37.851Z,33.90
2022-09-29T11:54:17.015Z,25.70
2022-09-29T11:57:18.684Z,23.55
2022-09-29T12:00:12.210Z,45.05
2022-09-29T12:03:17.116Z,67.93
2022-09-29T12:06:23.074Z,11.73
2022-09-29T12:09:09.236Z,18.60
2022-09-29T12:11:54.798Z,13.15
2022-09-29T12:14:51.390Z,84.18
2022-09-29T12:17:20.555Z,25.65
2022-09-29T12:19:53.951Z,23.02
2022-09-29T12:22:21.674Z,22.65
2022-09-29T12:24:55.609Z,15.05
2022-09-29T12:30:18.776Z,15.30
2022-09-29T12:32:57.753Z,30.83
2022-09-29T12:35:43.790Z,15.75
2022-09-29T12:38:37.390Z,18.70
2022-09-29T12:41:24.435Z,18.53
2022-09-29T12:44:23.796Z,17.80
2022-09-29T12:46:58.930Z,20.27
2022-09-29T12:49:34.751Z,13.20
2022-09-29T12:52:03.504Z,17.38
2022-09-29T12:54:53.935Z,19.30
2022-09-29T12:57:27.113Z,16.95
2022-09-29T12:59:54.312Z,16.58
2022-09-29T13:02:36.418Z,19.88
2022-09-29T13:05:03.760Z,14.20
2022-09-29T13:08:08.794Z,18.38
2022-09-29T13:10:48.197Z,19.55
2022-09-29T13:13:47.235Z,13.75
2022-09-29T13:16:33.270Z,11.77
2022-09-29T13:19:39.478Z,11.68
2022-09-29T13:22:37.495Z,13.90
2022-09-29T13:25:29.357Z,16.58
2022-09-29T13:27:57.658Z,14.10
2022-09-29T13:30:33.924Z,27.35
2022-09-29T13:33:25.514Z,16.83
2022-09-29T13:35:54.052Z,9.75
2022-09-29T13:38:30.703Z,14.80
2022-09-29T13:41:24.484Z,28.88
2022-09-29T13:43:51.750Z,21.50
2022-09-29T13:46:31.435Z,29.33
2022-09-29T13:49:22.995Z,16.13
2022-09-29T13:52:26.050Z,16.90
2022-09-29T13:54:53.463Z,25.42
2022-09-29T13:57:27.948Z,14.23
2022-09-29T13:59:55.916Z,21.33
2022-09-29T14:02:42.908Z,17.80
2022-09-29T14:05:25.180Z,17.85
2022-09-29T14:07:58.723Z,88.20
2022-09-29T14:10:39.454Z,11.82
2022-09-29T14:13:18.531Z,16.20
2022-09-29T14:16:01.518Z,21.35
2022-09-29T14:18:35.936Z,11.18
2022-09-29T14:21:10.635Z,11.48
2022-09-29T14:23:51.861Z,15.25
2022-09-29T14:26:46.816Z,18.83
2022-09-29T14:29:26.152Z,20.30
2022-09-29T14:31:57.690Z,14.38
2022-09-29T14:34:29.774Z,21.00
2022-09-29T14:36:58.717Z,14.23
2022-09-29T14:39:28.031Z,9.13
2022-09-29T14:41:57.054Z,9.85
2022-09-29T14:44:54.931Z,22.83
2022-09-29T14:47:54.259Z,23.45
2022-09-29T14:51:00.946Z,17.02
2022-09-29T14:53:44.628Z,16.52
2022-09-29T14:56:20.610Z,12.65
2022-09-29T14:59:21.269Z,10.10
2022-09-29T15:02:19.003Z,10.07
2022-09-29T15:04:46.966Z,15.48
2022-09-29T15:07:17.342Z,20.60
2022-09-29T15:09:57.452Z,15.93
2022-09-29T15:12:32.530Z,10.68
2022-09-29T15:15:02.610Z,11.38
2022-09-29T15:17:32.661Z,13.45
2022-09-29T15:20:18.693Z,14.32
2022-09-29T15:22:58.279Z,12.68
2022-09-29T15:25:31.653Z,21.25
2022-09-29T15:28:26.216Z,12.65
2022-09-29T15:33:36.381Z,9.43
2022-09-29T15:36:17.601Z,10.48
2022-09-29T15:38:45.656Z,10.60
2022-09-29T15:41:19.360Z,11.52
2022-09-29T15:43:55.003Z,10.63
2022-09-29T15:46:26.853Z,12.70
2022-09-29T15:49:17.657Z,16.38
2022-09-29T15:51:59.512Z,36.90
2022-09-29T15:54:35.077Z,32.10
2022-09-29T15:57:21.718Z,23.92
2022-09-29T15:59:55.794Z,46.67
2022-09-29T16:02:42.344Z,47.35
2022-09-29T16:05:16.155Z,42.45
2022-09-29T16:07:54.097Z,65.78
2022-09-29T16:10:24.452Z,45.20
2022-09-29T16:13:02.693Z,31.00
2022-09-29T16:15:45.202Z,91.63
2022-09-29T16:18:34.674Z,24.00
2022-09-29T16:21:15.173Z,18.58
2022-09-29T16:24:08.100Z,14.90
2022-09-29T16:26:50.567Z,11.82
2022-09-29T16:29:20.559Z,12.23
2022-09-29T16:31:49.151Z,14.40
2022-09-29T16:34:22.798Z,15.77
2022-09-29T16:36:52.824Z,12.02
2022-09-29T16:39:24.354Z,15.20
2022-09-29T16:42:27.361Z,13.77
2022-09-29T16:44:56.302Z,18.00
2022-09-29T16:47:32.797Z,28.35
2022-09-29T16:50:05.661Z,32.55
2022-09-29T16:52:48.172Z,17.55
2022-09-29T16:55:27.915Z,28.23
2022-09-29T16:57:57.289Z,62.35
2022-09-29T17:00:25.113Z,55.75
2022-09-29T17:02:53.692Z,50.45
2022-09-29T17:05:22.157Z,38.30
2022-09-29T17:07:50.477Z,77.57
2022-09-29T17:10:21.672Z,59.90
2022-09-29T17:12:48.954Z,54.53
2022-09-29T17:15:17.659Z,38.65
2022-09-29T17:17:47.474Z,32.67
2022-09-29T17:20:18.137Z,21.95
2022-09-29T17:22:46.237Z,20.42
2022-09-29T17:25:14.621Z,25.05
2022-09-29T17:28:02.877Z,24.35
2022-09-29T17:30:30.418Z,21.50
2022-09-29T17:32:59.291Z,26.58
2022-09-29T17:35:40.695Z,12.18
2022-09-29T17:38:09.533Z,18.95
2022-09-29T17:41:02.642Z,17.45
2022-09-29T17:43:33.797Z,17.85
2022-09-29T17:46:02.191Z,17.50
2022-09-29T17:48:30.738Z,16.08
2022-09-29T17:50:59.709Z,17.92
2022-09-29T17:53:27.193Z,19.98
2022-09-29T17:55:57.490Z,13.88
2022-09-29T17:58:25.311Z,17.40
2022-09-29T18:00:57.581Z,20.92
2022-09-29T18:03:25.476Z,21.58
2022-09-29T18:05:57.033Z,20.40
2022-09-29T18:08:26.937Z,17.10
2022-09-29T18:10:55.619Z,21.45
2022-09-29T18:13:24.758Z,24.15
2022-09-29T18:15:52.226Z,21.80
2022-09-29T18:18:22.197Z,18.40
2022-09-29T18:20:50.919Z,17.02
2022-09-29T18:23:19.740Z,52.40
2022-09-29T18:25:49.253Z,34.10
2022-09-29T18:28:17.538Z,34.88
2022-09-29T18:30:48.050Z,37.08
2022-09-29T18:33:18.453Z,52.22
2022-09-29T18:35:51.033Z,38.03
2022-09-29T18:38:18.344Z,27.25
2022-09-29T18:40:47.430Z,24.70
2022-09-29T18:43:15.501Z,20.73
2022-09-29T18:45:43.880Z,22.20
2022-09-29T18:48:15.576Z,22.08
2022-09-29T18:50:48.258Z,24.85
2022-09-29T18:53:17.937Z,24.30
2022-09-29T18:55:45.458Z,16.88
2022-09-29T18:58:15.018Z,16.65
2022-09-29T19:00:50.446Z,22.80
2022-09-29T19:03:19.453Z,46.63
2022-09-29T19:05:47.893Z,56.33
2022-09-29T19:08:16.653Z,45.90
2022-09-29T19:10:55.933Z,54.50
2022-09-29T19:13:23.439Z,23.05
2022-09-29T19:15:50.854Z,47.67
2022-09-29T19:18:22.814Z,30.05
2022-09-29T19:20:59.339Z,30.33
2022-09-29T19:23:28.418Z,33.05
2022-09-29T19:25:58.792Z,25.80
2022-09-29T19:28:27.599Z,20.42
2022-09-29T19:30:56.290Z,16.50
2022-09-29T19:33:23.704Z,18.00
2022-09-29T19:35:57.602Z,14.73
2022-09-29T19:40:52.128Z,15.25
2022-09-29T19:43:21.747Z,15.77
2022-09-29T19:45:50.420Z,44.97
2022-09-29T19:48:22.025Z,46.58
2022-09-29T19:51:15.918Z,50.60
2022-09-29T19:53:45.819Z,78.45
2022-09-29T19:56:17.378Z,50.08
2022-09-29T19:58:44.794Z,45.90
2022-09-29T20:01:13.121Z,28.10
2022-09-29T20:03:42.153Z,28.33
2022-09-29T20:06:10.739Z,33.08
2022-09-29T20:08:38.218Z,32.60
2022-09-29T20:11:10.580Z,26.38
2022-09-29T20:13:38.987Z,28.23
2022-09-29T20:16:07.329Z,19.15
2022-09-29T20:18:36.861Z,21.15
2022-09-29T20:21:13.151Z,15.48
2022-09-29T20:23:40.766Z,15.85
2022-09-29T20:26:11.393Z,18.65
2022-09-29T20:28:40.433Z,20.83
2022-09-29T20:31:08.202Z,16.17
2022-09-29T20:33:36.729Z,27.80
2022-09-29T20:36:05.490Z,21.50
2022-09-29T20:38:34.761Z,21.23
2022-09-29T20:41:03.287Z,23.17
2022-09-29T20:43:30.645Z,19.27
2022-09-29T20:46:03.240Z,17.88
2022-09-29T20:48:39.496Z,19.60
2022-09-29T20:51:08.896Z,19.65
2022-09-29T20:53:40.953Z,23.45
2022-09-29T20:56:11.599Z,26.33
2022-09-29T20:58:43.741Z,21.23
2022-09-29T21:01:13.398Z,21.35
2022-09-29T21:03:40.757Z,27.27
2022-09-29T21:06:08.357Z,20.63
2022-09-29T21:08:36.347Z,22.50
2022-09-29T21:11:05.115Z,20.08
2022-09-29T21:13:32.739Z,24.58
2022-09-29T21:16:01.469Z,26.67
2022-09-29T21:18:30.439Z,30.27
2022-09-29T21:20:59.954Z,32.88
2022-09-29T21:23:28.063Z,24.52
2022-09-29T21:26:12.977Z,22.83
2022-09-29T21:28:42.581Z,36.72
2022-09-29T21:31:12.682Z,57.10
2022-09-29T21:33:42.266Z,35.58
2022-09-29T21:36:13.419Z,35.28
2022-09-29T21:38:42.722Z,45.60
2022-09-29T21:41:22.733Z,63.80
2022-09-29T21:43:52.868Z,49.70
2022-09-29T21:46:22.320Z,37.72
2022-09-29T21:48:53.985Z,38.33
2022-09-29T21:51:26.568Z,40.03
2022-09-29T21:53:55.361Z,20.20
2022-09-29T21:56:24.895Z,23.08
2022-09-29T21:58:53.890Z,18.38
2022-09-29T22:01:21.848Z,18.40
2022-09-29T22:03:50.525Z,17.73
2022-09-29T22:06:23.209Z,17.35
2022-09-29T22:08:51.915Z,19.25
2022-09-29T22:11:22.201Z,18.83
2022-09-29T22:13:50.922Z,16.90
2022-09-29T22:16:23.434Z,14.55
2022-09-29T22:19:11.808Z,15.65
2022-09-29T22:21:38.641Z,15.93
2022-09-29T22:24:06.286Z,20.75
2022-09-29T22:26:33.619Z,26.80
2022-09-29T22:29:03.131Z,19.90
2022-09-29T22:31:31.988Z,19.83
2022-09-29T22:34:01.684Z,17.27
2022-09-29T22:36:31.550Z,15.05
2022-09-29T22:38:59.166Z,15.00
2022-09-29T22:41:26.570Z,15.07
2022-09-29T22:43:55.957Z,13.38
2022-09-29T22:46:24.923Z,12.90
2022-09-29T22:48:52.806Z,12.27
2022-09-29T22:51:23.523Z,14.10
2022-09-29T22:53:51.041Z,13.00
2022-09-29T22:56:29.058Z,13.25
2022-09-29T22:59:01.429Z,14.45
2022-09-29T23:01:29.309Z,16.42
2022-09-29T23:03:57.165Z,15.23
2022-09-29T23:06:24.888Z,14.27
2022-09-29T23:08:55.098Z,15.18
2022-09-29T23:11:22.565Z,15.23
2022-09-29T23:13:49.880Z,15.40
2022-09-29T23:16:18.034Z,16.23
2022-09-29T23:18:46.843Z,15.77
2022-09-29T23:21:19.612Z,17.30
2022-09-29T23:23:58.401Z,17.13
2022-09-29T23:26:27.562Z,17.92
2022-09-29T23:28:56.045Z,17.02
2022-09-29T23:31:24.060Z,17.13
2022-09-29T23:33:59.478Z,17.17
2022-09-29T23:36:29.063Z,19.33
2022-09-29T23:39:11.362Z,16.83
2022-09-29T23:41:44.400Z,14.98
2022-09-29T23:44:16.574Z,17.33
2022-09-29T23:46:44.262Z,18.92
2022-09-29T23:49:17.342Z,16.15
2022-09-29T23:51:50.497Z,16.93
2022-09-29T23:54:20.456Z,15.73
2022-09-29T23:56:49.371Z,15.68
2022-09-29T23:59:17.278Z,18.38
